Time;durP1;ratioP1;P1;durP2;ratioP2;P2;SDS_P1;SDS_P2;PMS_P1;PMS_P2;Temp;Humidity;BMP_temperature;BMP_pressure;BME280_temperature;BME280_humidity;BME280_pressure;Samples;Min_cycle;Max_cycle;Signal;HPM_P1;HPM_P2
2023/12/15 00:00:28;;;;;;;15.10;5.30;;;;;;;1.03;100.00;100079.13;106245;1249;61310;-59
2023/12/15 00:02:56;;;;;;;13.90;5.50;;;;;;;1.05;100.00;100069.56;106203;1251;61196;-60
2023/12/15 00:05:23;;;;;;;11.60;5.90;;;;;;;1.02;100.00;100067.57;106280;1251;75500;-71
2023/12/15 00:07:50;;;;;;;15.30;5.90;;;;;;;1.01;100.00;100062.81;105969;1251;67605;-60
2023/12/15 00:10:17;;;;;;;14.00;5.80;;;;;;;1.00;100.00;100063.08;105977;1251;72664;-59
2023/12/15 00:12:44;;;;;;;12.20;5.50;;;;;;;1.01;100.00;100058.58;106003;1250;61185;-61
2023/12/15 00:15:11;;;;;;;16.00;6.50;;;;;;;1.02;100.00;100049.40;106214;1253;61219;-59
2023/12/15 00:17:38;;;;;;;14.20;5.60;;;;;;;1.03;100.00;100044.23;105923;1251;75132;-60
2023/12/15 00:20:07;;;;;;;12.80;5.30;;;;;;;1.02;100.00;100043.12;105942;1251;67170;-62
2023/12/15 00:22:34;;;;;;;15.40;5.60;;;;;;;1.01;100.00;100041.66;106007;1250;72522;-59
2023/12/15 00:25:02;;;;;;;14.70;4.50;;;;;;;1.01;100.00;100038.53;105909;1253;61971;-61
2023/12/15 00:27:29;;;;;;;12.30;4.40;;;;;;;1.00;100.00;100037.96;106232;1251;61306;-72
2023/12/15 00:29:57;;;;;;;11.00;5.30;;;;;;;1.03;100.00;100034.29;105975;1251;75170;-60
2023/12/15 00:32:24;;;;;;;12.10;5.20;;;;;;;1.03;100.00;100030.04;105905;1250;67283;-61
2023/12/15 00:34:52;;;;;;;11.10;4.80;;;;;;;1.03;100.00;100022.84;105972;1251;71157;-61
2023/12/15 00:37:20;;;;;;;12.20;4.50;;;;;;;1.03;100.00;100021.14;105809;1251;61222;-72
2023/12/15 00:39:48;;;;;;;11.10;5.10;;;;;;;0.99;100.00;100018.52;105948;1250;61206;-61
2023/12/15 00:42:15;;;;;;;10.70;4.70;;;;;;;1.01;100.00;100022.86;105873;1251;74682;-60
2023/12/15 00:44:42;;;;;;;12.80;4.70;;;;;;;1.02;100.00;100020.02;105863;1251;67270;-63
2023/12/15 00:47:09;;;;;;;10.30;4.60;;;;;;;1.02;100.00;100019.84;106121;1253;72537;-72
2023/12/15 00:49:36;;;;;;;11.90;3.90;;;;;;;1.04;100.00;100023.46;105932;1253;60554;-61
2023/12/15 00:52:03;;;;;;;12.10;5.80;;;;;;;1.06;100.00;100026.89;105895;1253;61170;-61
2023/12/15 00:54:30;;;;;;;17.70;5.90;;;;;;;1.07;100.00;100023.36;106056;1251;73212;-62
2023/12/15 00:56:57;;;;;;;14.50;5.50;;;;;;;1.08;100.00;100020.00;106045;1253;65766;-61
2023/12/15 00:59:24;;;;;;;14.00;5.60;;;;;;;1.08;100.00;100018.69;106423;1251;74755;-73
2023/12/15 01:01:51;;;;;;;13.00;6.20;;;;;;;1.10;100.00;100018.15;105895;1251;61632;-61
2023/12/15 01:04:18;;;;;;;11.70;4.60;;;;;;;1.10;100.00;100024.77;105968;1250;61256;-61
2023/12/15 01:06:45;;;;;;;16.20;5.50;;;;;;;1.11;100.00;100033.14;106047;1253;74725;-60
2023/12/15 01:09:12;;;;;;;11.10;4.70;;;;;;;1.12;100.00;100033.89;105878;1251;67272;-60
2023/12/15 01:11:39;;;;;;;11.10;5.30;;;;;;;1.07;100.00;100031.75;106091;1253;71136;-61
2023/12/15 01:14:06;;;;;;;12.90;4.60;;;;;;;1.05;100.00;100024.56;106234;1249;61302;-61
2023/12/15 01:16:33;;;;;;;14.20;5.80;;;;;;;1.01;100.00;100017.35;106240;1253;61225;-61
2023/12/15 01:19:00;;;;;;;15.10;5.30;;;;;;;0.99;100.00;100014.60;106014;1251;75197;-63
2023/12/15 01:21:27;;;;;;;14.10;4.40;;;;;;;0.99;100.00;100012.61;106393;1251;65958;-62
2023/12/15 01:23:54;;;;;;;17.30;5.20;;;;;;;1.01;100.00;100011.21;105984;1251;71820;-63
2023/12/15 01:26:21;;;;;;;9.80;4.10;;;;;;;1.02;100.00;100012.45;105951;1253;61305;-63
2023/12/15 01:28:48;;;;;;;11.70;4.70;;;;;;;1.03;100.00;100008.84;105903;1251;61215;-64
2023/12/15 01:31:15;;;;;;;9.90;4.20;;;;;;;1.05;100.00;100008.11;105958;1253;74548;-62
2023/12/15 01:33:43;;;;;;;15.60;5.00;;;;;;;1.06;100.00;100006.46;105618;1253;67113;-63
2023/12/15 01:36:10;;;;;;;15.90;6.00;;;;;;;1.06;100.00;100007.34;106233;1253;71558;-62
2023/12/15 01:38:37;;;;;;;11.00;5.20;;;;;;;1.06;100.00;99999.80;106407;1253;61108;-65
2023/12/15 01:41:05;;;;;;;13.00;6.10;;;;;;;1.07;100.00;99995.80;105929;1251;61205;-64
2023/12/15 01:43:32;;;;;;;13.50;5.60;;;;;;;1.06;100.00;99995.38;105886;1253;74959;-61
2023/12/15 01:45:58;;;;;;;14.80;6.50;;;;;;;1.03;100.00;99989.94;105919;1251;67046;-61
2023/12/15 01:48:38;;;;;;;19.10;7.00;;;;;;;1.04;100.00;99990.43;106216;1251;72830;-62
2023/12/15 01:51:05;;;;;;;10.20;4.70;;;;;;;1.05;100.00;99991.14;105712;1251;61261;-61
2023/12/15 01:53:32;;;;;;;13.10;4.70;;;;;;;1.04;100.00;99990.21;106023;1252;61405;-64
2023/12/15 01:56:00;;;;;;;12.50;5.50;;;;;;;1.03;100.00;99986.08;105931;1253;74336;-61
2023/12/15 01:58:27;;;;;;;14.40;6.40;;;;;;;1.02;100.00;99989.39;105910;1251;67031;-60
2023/12/15 02:00:53;;;;;;;13.90;5.70;;;;;;;1.02;100.00;99999.81;106174;1253;72729;-62
2023/12/15 02:03:21;;;;;;;12.30;5.30;;;;;;;1.02;100.00;100001.35;106276;1251;61266;-71
2023/12/15 02:05:48;;;;;;;16.40;5.40;;;;;;;1.00;100.00;100000.81;106179;1251;61189;-62
2023/12/15 02:08:15;;;;;;;12.40;4.90;;;;;;;1.00;100.00;100007.04;105772;1251;75436;-62
2023/12/15 02:10:42;;;;;;;13.00;5.50;;;;;;;0.98;100.00;100002.55;105945;1251;67190;-61
2023/12/15 02:13:09;;;;;;;14.90;4.90;;;;;;;0.96;100.00;100006.95;105972;1254;72679;-70
2023/12/15 02:15:36;;;;;;;15.80;6.10;;;;;;;0.94;100.00;100003.04;106169;1252;61312;-61
2023/12/15 02:18:03;;;;;;;12.30;5.30;;;;;;;0.92;100.00;100001.48;106197;1253;61212;-63
2023/12/15 02:20:30;;;;;;;16.10;6.00;;;;;;;0.94;100.00;99996.20;105814;1251;73325;-60
2023/12/15 02:22:59;;;;;;;13.90;6.50;;;;;;;0.95;100.00;99998.13;106382;1251;67077;-61
2023/12/15 02:25:26;;;;;;;15.80;7.70;;;;;;;0.94;100.00;100000.32;106173;1253;71420;-67
2023/12/15 02:27:53;;;;;;;14.10;6.20;;;;;;;0.93;100.00;99997.60;105817;1253;61211;-60
2023/12/15 02:30:21;;;;;;;15.20;4.90;;;;;;;0.96;100.00;100002.33;105950;1253;61132;-62
2023/12/15 02:32:48;;;;;;;17.20;6.10;;;;;;;1.04;100.00;100004.64;105952;1251;73295;-61
2023/12/15 02:35:16;;;;;;;13.00;5.80;;;;;;;1.03;100.00;100005.88;106135;1251;67399;-60
2023/12/15 02:37:43;;;;;;;14.90;6.10;;;;;;;1.05;100.00;100005.91;106054;1254;72457;-68
2023/12/15 02:40:11;;;;;;;14.60;5.40;;;;;;;1.06;100.00;100001.52;105889;1252;61946;-63
2023/12/15 02:42:38;;;;;;;14.60;6.50;;;;;;;1.06;100.00;100002.02;105906;1251;61246;-60
2023/12/15 02:45:05;;;;;;;14.90;5.90;;;;;;;1.09;100.00;100007.95;106179;1251;72923;-61
2023/12/15 02:47:33;;;;;;;12.40;5.50;;;;;;;1.08;100.00;100012.66;106218;1253;67071;-62
2023/12/15 02:50:00;;;;;;;16.80;6.50;;;;;;;1.11;100.00;100008.95;105638;1252;72456;-60
2023/12/15 02:52:27;;;;;;;14.00;6.70;;;;;;;1.11;100.00;100007.24;105946;1253;61339;-61
2023/12/15 02:54:54;;;;;;;13.50;6.10;;;;;;;1.11;100.00;100007.96;105889;1251;61215;-61
2023/12/15 02:57:21;;;;;;;17.70;6.10;;;;;;;1.10;100.00;100012.29;106119;1252;73505;-60
2023/12/15 02:59:48;;;;;;;11.80;5.70;;;;;;;1.10;100.00;100015.73;106100;1253;67059;-60
2023/12/15 03:02:15;;;;;;;13.20;5.60;;;;;;;1.08;100.00;100014.35;105849;1253;72710;-60
2023/12/15 03:04:42;;;;;;;14.00;5.90;;;;;;;1.09;100.00;100014.82;105820;1251;61265;-62
2023/12/15 03:07:08;;;;;;;12.80;5.40;;;;;;;1.10;100.00;100011.29;106015;1251;61254;-60
2023/12/15 03:09:35;;;;;;;11.50;5.50;;;;;;;1.12;100.00;100009.40;106138;1251;73608;-63
2023/12/15 03:12:03;;;;;;;12.80;5.90;;;;;;;1.16;100.00;100004.13;105698;1252;67233;-60
2023/12/15 03:14:30;;;;;;;14.60;5.60;;;;;;;1.13;100.00;100003.14;105895;1253;72752;-60
2023/12/15 03:16:57;;;;;;;13.10;5.00;;;;;;;1.13;100.00;100005.72;105957;1251;61348;-61
2023/12/15 03:19:24;;;;;;;13.20;6.00;;;;;;;1.11;100.00;100004.21;106212;1251;61381;-69
2023/12/15 03:21:51;;;;;;;18.50;6.00;;;;;;;1.16;100.00;100003.80;106170;1253;75096;-61
2023/12/15 03:24:18;;;;;;;17.10;6.40;;;;;;;1.16;100.00;100006.83;105965;1253;206842;-61
2023/12/15 03:26:45;;;;;;;13.30;5.60;;;;;;;1.16;100.00;100010.29;105939;1253;73044;-61
2023/12/15 03:29:12;;;;;;;11.90;5.70;;;;;;;1.18;100.00;100011.30;106012;1253;61253;-61
2023/12/15 03:31:41;;;;;;;15.20;6.40;;;;;;;1.20;100.00;100012.13;106207;1251;61096;-61
2023/12/15 03:34:08;;;;;;;18.50;6.50;;;;;;;1.21;100.00;100012.26;106153;1253;74548;-60
2023/12/15 03:36:38;;;;;;;14.20;6.50;;;;;;;1.24;100.00;100009.48;105989;1253;65950;-60
2023/12/15 03:39:06;;;;;;;14.60;6.40;;;;;;;1.22;100.00;100006.52;106366;1253;71501;-60
2023/12/15 03:41:33;;;;;;;13.40;6.40;;;;;;;1.19;100.00;100008.79;106055;1252;61256;-69
2023/12/15 03:44:00;;;;;;;14.00;5.90;;;;;;;1.16;100.00;100008.55;105999;1256;61147;-61
2023/12/15 03:46:27;;;;;;;12.10;6.00;;;;;;;1.20;100.00;100004.44;105926;1253;75673;-60
2023/12/15 03:48:54;;;;;;;13.10;6.40;;;;;;;1.21;100.00;100004.18;105989;1251;67231;-60
2023/12/15 03:51:21;;;;;;;12.70;6.30;;;;;;;1.18;100.00;100000.35;105878;1251;72608;-60
2023/12/15 03:53:48;;;;;;;12.90;6.00;;;;;;;1.17;100.00;100003.34;106229;1251;61413;-62
2023/12/15 03:56:25;;;;;;;17.40;6.90;;;;;;;1.16;100.00;100000.98;105889;1253;61288;-61
2023/12/15 03:58:52;;;;;;;14.70;6.40;;;;;;;1.14;100.00;100006.68;105730;1256;74606;-60
2023/12/15 04:01:19;;;;;;;13.00;6.40;;;;;;;1.13;100.00;100009.48;106465;1250;65940;-60
2023/12/15 04:03:46;;;;;;;13.80;6.30;;;;;;;1.10;100.00;100014.39;106125;1251;71212;-60
2023/12/15 04:06:13;;;;;;;14.40;5.70;;;;;;;1.09;100.00;100013.55;105947;1251;61627;-60
2023/12/15 04:08:42;;;;;;;13.00;5.70;;;;;;;1.09;100.00;100014.95;106119;1253;61321;-61
2023/12/15 04:11:08;;;;;;;10.90;6.10;;;;;;;1.06;100.00;100016.22;106042;1251;74675;-61
2023/12/15 04:13:36;;;;;;;12.60;5.70;;;;;;;1.06;100.00;100011.63;106197;1253;66139;-61
2023/12/15 04:16:04;;;;;;;10.40;5.20;;;;;;;1.07;100.00;100010.02;105924;1253;73233;-60
2023/12/15 04:18:32;;;;;;;16.00;6.90;;;;;;;1.07;100.00;100010.55;105779;1250;61306;-60
2023/12/15 04:21:00;;;;;;;12.60;6.10;;;;;;;1.08;100.00;100009.25;106038;1253;60932;-62
2023/12/15 04:23:27;;;;;;;15.40;6.80;;;;;;;1.09;100.00;100007.11;106429;1253;73082;-69
2023/12/15 04:25:54;;;;;;;12.70;5.80;;;;;;;1.10;100.00;100003.40;106382;1253;66163;-60
2023/12/15 04:28:21;;;;;;;15.30;5.90;;;;;;;1.13;100.00;100005.04;105891;1251;72646;-61
2023/12/15 04:30:48;;;;;;;13.20;6.10;;;;;;;1.12;100.00;100010.21;105867;1251;61211;-62
2023/12/15 04:33:15;;;;;;;14.20;7.00;;;;;;;1.14;100.00;100012.83;106120;1250;61224;-62
2023/12/15 04:35:42;;;;;;;14.70;6.10;;;;;;;1.16;100.00;100014.89;106003;1251;73450;-61
2023/12/15 04:38:09;;;;;;;13.60;6.00;;;;;;;1.19;100.00;100019.06;105960;1253;67046;-62
2023/12/15 04:40:36;;;;;;;12.60;5.50;;;;;;;1.19;100.00;100017.55;106034;1251;72699;-62
2023/12/15 04:43:03;;;;;;;12.00;5.40;;;;;;;1.19;100.00;100013.23;106046;1251;61233;-70
2023/12/15 04:45:30;;;;;;;14.40;6.60;;;;;;;1.19;100.00;100006.77;105991;1253;61443;-62
2023/12/15 04:47:57;;;;;;;17.00;6.60;;;;;;;1.19;100.00;100000.25;106010;1253;74736;-62
2023/12/15 04:50:24;;;;;;;11.90;6.30;;;;;;;1.18;100.00;99998.81;106014;1252;66471;-62
2023/12/15 04:52:52;;;;;;;12.30;6.30;;;;;;;1.19;100.00;99998.56;105960;1250;72362;-65
2023/12/15 04:55:19;;;;;;;14.60;6.70;;;;;;;1.17;100.00;99999.18;105947;1254;61345;-62
2023/12/15 04:57:46;;;;;;;16.20;7.20;;;;;;;1.19;100.00;99994.95;106096;1251;61141;-61
2023/12/15 05:00:16;;;;;;;11.70;6.00;;;;;;;1.19;100.00;100001.30;106170;1251;73673;-61
2023/12/15 05:02:44;;;;;;;13.50;5.90;;;;;;;1.18;100.00;100007.20;106267;1251;67025;-62
2023/12/15 05:05:11;;;;;;;16.10;7.40;;;;;;;1.18;100.00;100013.14;105863;1253;72692;-61
2023/12/15 05:07:38;;;;;;;14.10;7.00;;;;;;;1.19;100.00;100014.49;105676;1257;61271;-61
2023/12/15 05:10:06;;;;;;;18.20;10.00;;;;;;;1.20;100.00;100012.13;106190;1253;61141;-62
2023/12/15 05:12:36;;;;;;;18.70;11.20;;;;;;;1.22;100.00;100017.83;105934;1251;72264;-62
2023/12/15 05:15:03;;;;;;;16.50;9.10;;;;;;;1.23;100.00;100012.98;105865;1253;67020;-63
2023/12/15 05:17:31;;;;;;;12.20;7.00;;;;;;;1.24;100.00;100020.78;106203;1253;71499;-64
2023/12/15 05:19:58;;;;;;;14.10;6.80;;;;;;;1.24;100.00;100040.27;105799;1252;61357;-65
2023/12/15 05:22:25;;;;;;;15.90;9.00;;;;;;;1.24;100.00;100044.20;105876;1251;61263;-62
2023/12/15 05:24:52;;;;;;;14.10;7.00;;;;;;;1.26;100.00;100037.73;105956;1253;74794;-62
2023/12/15 05:27:19;;;;;;;14.20;6.80;;;;;;;1.30;100.00;100041.77;105977;1253;68649;-63
2023/12/15 05:29:46;;;;;;;12.20;6.30;;;;;;;1.33;100.00;100041.25;106331;1253;72504;-66
2023/12/15 05:32:13;;;;;;;12.40;6.10;;;;;;;1.36;100.00;100042.33;106156;1251;61641;-63
2023/12/15 05:34:41;;;;;;;13.30;6.40;;;;;;;1.36;100.00;100045.19;106135;1251;61314;-62
2023/12/15 05:37:08;;;;;;;16.70;8.20;;;;;;;1.36;100.00;100049.17;105891;1251;74752;-64
2023/12/15 05:39:35;;;;;;;15.30;7.20;;;;;;;1.36;100.00;100047.77;106050;1251;66967;-65
2023/12/15 05:42:02;;;;;;;16.20;6.90;;;;;;;1.35;100.00;100049.94;105960;1251;72575;-62
2023/12/15 05:44:29;;;;;;;11.70;6.20;;;;;;;1.33;100.00;100045.48;105949;1253;61280;-65
2023/12/15 05:46:56;;;;;;;11.30;6.40;;;;;;;1.33;100.00;100047.73;106021;1251;61231;-65
2023/12/15 05:49:24;;;;;;;10.70;6.20;;;;;;;1.31;100.00;100058.00;106059;1251;74640;-61
2023/12/15 05:51:51;;;;;;;16.10;8.10;;;;;;;1.30;100.00;100058.23;106172;1254;67608;-66
2023/12/15 05:54:18;;;;;;;15.50;7.80;;;;;;;1.32;100.00;100053.98;105983;1250;72350;-62
2023/12/15 05:56:44;;;;;;;14.30;7.60;;;;;;;1.32;100.00;100058.56;106057;1254;61237;-62
2023/12/15 05:59:11;;;;;;;14.40;7.80;;;;;;;1.33;100.00;100056.08;106005;1253;61218;-63
2023/12/15 06:01:38;;;;;;;17.00;7.90;;;;;;;1.35;100.00;100064.19;105949;1253;73447;-63
2023/12/15 06:04:05;;;;;;;16.10;7.60;;;;;;;1.36;100.00;100071.59;106102;1250;66358;-63
2023/12/15 06:06:32;;;;;;;19.00;9.10;;;;;;;1.39;100.00;100074.41;106272;1253;72556;-63
2023/12/15 06:08:59;;;;;;;14.30;8.50;;;;;;;1.38;100.00;100073.45;105994;1254;61323;-63
2023/12/15 06:11:27;;;;;;;14.90;7.20;;;;;;;1.37;100.00;100079.55;106107;1251;61237;-63
2023/12/15 06:13:54;;;;;;;14.10;7.30;;;;;;;1.36;100.00;100079.64;106519;1254;73146;-66
2023/12/15 06:16:21;;;;;;;15.00;6.90;;;;;;;1.36;100.00;100074.86;106240;1253;67189;-71
2023/12/15 06:18:48;;;;;;;12.00;6.50;;;;;;;1.37;100.00;100073.23;106147;1257;71581;-63
2023/12/15 06:21:21;;;;;;;12.90;8.10;;;;;;;1.36;100.00;100068.19;105931;1256;61281;-63
2023/12/15 06:23:48;;;;;;;18.00;7.30;;;;;;;1.34;100.00;100066.67;106308;1253;61209;-63
2023/12/15 06:26:22;;;;;;;12.00;7.60;;;;;;;1.30;100.00;100056.73;106149;1253;74506;-74
2023/12/15 06:28:49;;;;;;;12.60;7.30;;;;;;;1.28;100.00;100068.88;105977;1251;67194;-63
2023/12/15 06:31:16;;;;;;;14.70;6.60;;;;;;;1.30;100.00;100077.27;105989;1256;73335;-64
2023/12/15 06:33:43;;;;;;;12.10;6.90;;;;;;;1.31;100.00;100087.60;105790;1254;61186;-63
2023/12/15 06:36:11;;;;;;;18.40;7.80;;;;;;;1.33;100.00;100091.05;106019;1254;61247;-64
2023/12/15 06:38:44;;;;;;;15.10;8.70;;;;;;;1.32;100.00;100092.44;106122;1256;72932;-62
2023/12/15 06:41:12;;;;;;;20.50;8.70;;;;;;;1.33;100.00;100089.51;105762;1253;67174;-63
2023/12/15 06:43:39;;;;;;;14.40;7.80;;;;;;;1.33;100.00;100093.29;105988;1263;72794;-63
2023/12/15 06:46:07;;;;;;;11.90;7.30;;;;;;;1.34;100.00;100093.73;106048;1253;61236;-74
2023/12/15 06:48:34;;;;;;;13.70;7.90;;;;;;;1.34;100.00;100096.57;106109;1253;61273;-65
2023/12/15 06:51:01;;;;;;;16.90;9.50;;;;;;;1.38;100.00;100098.17;105998;1252;73335;-64
2023/12/15 06:53:28;;;;;;;13.40;8.60;;;;;;;1.35;100.00;100102.16;106067;1257;66003;-63
2023/12/15 06:55:55;;;;;;;18.40;9.70;;;;;;;1.36;100.00;100100.67;105986;1263;72823;-62
2023/12/15 06:58:23;;;;;;;17.10;8.30;;;;;;;1.34;100.00;100102.22;105972;1254;61134;-63
2023/12/15 07:00:50;;;;;;;14.20;8.60;;;;;;;1.37;100.00;100105.91;106157;1253;61251;-62
2023/12/15 07:03:17;;;;;;;16.10;9.40;;;;;;;1.39;100.00;100105.73;105975;1251;73291;-63
2023/12/15 07:05:45;;;;;;;15.90;10.00;;;;;;;1.41;100.00;100107.30;106304;1253;67289;-63
2023/12/15 07:08:12;;;;;;;16.00;10.20;;;;;;;1.45;100.00;100113.69;106449;1253;72457;-65
2023/12/15 07:10:39;;;;;;;18.50;11.10;;;;;;;1.46;100.00;100117.85;105873;1255;61212;-63
2023/12/15 07:13:06;;;;;;;18.20;10.70;;;;;;;1.47;100.00;100116.88;106066;1253;61113;-63
2023/12/15 07:15:33;;;;;;;21.30;14.00;;;;;;;1.49;100.00;100123.77;106021;1255;74548;-62
2023/12/15 07:18:00;;;;;;;26.50;16.40;;;;;;;1.52;100.00;100132.77;106021;1251;67190;-61
2023/12/15 07:20:27;;;;;;;25.50;16.20;;;;;;;1.53;100.00;100138.52;106117;1250;72761;-70
2023/12/15 07:22:54;;;;;;;22.70;14.50;;;;;;;1.51;100.00;100139.66;105903;1251;61169;-62
2023/12/15 07:25:24;;;;;;;19.80;13.30;;;;;;;1.48;100.00;100137.19;106358;1253;61113;-61
2023/12/15 07:27:53;;;;;;;22.70;14.10;;;;;;;1.48;100.00;100138.91;106146;1254;73184;-62
2023/12/15 07:30:21;;;;;;;21.00;13.10;;;;;;;1.47;100.00;100135.39;106063;1254;67091;-60
2023/12/15 07:32:48;;;;;;;25.20;15.40;;;;;;;1.46;100.00;100136.11;105917;1254;71397;-61
2023/12/15 07:35:15;;;;;;;23.60;14.30;;;;;;;1.47;100.00;100132.99;105928;1256;61497;-61
2023/12/15 07:37:57;;;;;;;21.60;14.00;;;;;;;1.46;100.00;100140.23;106241;1251;61300;-62
2023/12/15 07:40:25;;;;;;;24.50;15.30;;;;;;;1.44;100.00;100147.77;106294;1253;74668;-72
2023/12/15 07:42:52;;;;;;;22.50;15.50;;;;;;;1.44;100.00;100148.16;105692;1258;65930;-62
2023/12/15 07:45:19;;;;;;;24.90;15.10;;;;;;;1.44;100.00;100149.13;105918;1251;72224;-63
2023/12/15 07:47:46;;;;;;;26.70;16.60;;;;;;;1.44;100.00;100153.27;105844;1254;61250;-63
2023/12/15 07:50:13;;;;;;;32.20;18.70;;;;;;;1.45;100.00;100151.52;106489;1253;61187;-63
2023/12/15 07:52:40;;;;;;;31.10;18.90;;;;;;;1.47;100.00;100149.63;106135;1253;74663;-61
2023/12/15 07:55:08;;;;;;;26.40;18.20;;;;;;;1.52;100.00;100148.05;105810;1251;66548;-61
2023/12/15 07:57:35;;;;;;;28.80;18.30;;;;;;;1.57;100.00;100150.16;106018;1256;72680;-64
2023/12/15 08:00:05;;;;;;;28.00;17.80;;;;;;;1.59;100.00;100157.38;106079;1250;61356;-63
2023/12/15 08:02:38;;;;;;;23.70;15.90;;;;;;;1.63;100.00;100156.66;106064;1252;61246;-62
2023/12/15 08:05:06;;;;;;;23.20;14.10;;;;;;;1.63;100.00;100152.17;106168;1253;74664;-60
2023/12/15 08:07:33;;;;;;;21.00;13.60;;;;;;;1.64;100.00;100150.44;105905;1251;67053;-63
2023/12/15 08:10:01;;;;;;;20.00;12.90;;;;;;;1.63;100.00;100147.63;106269;1254;71526;-61
2023/12/15 08:12:28;;;;;;;23.90;12.20;;;;;;;1.63;100.00;100144.02;106141;1251;61308;-62
2023/12/15 08:14:55;;;;;;;21.20;12.00;;;;;;;1.63;100.00;100145.73;105975;1253;61128;-60
2023/12/15 08:17:22;;;;;;;21.90;12.90;;;;;;;1.62;100.00;100137.74;105882;1255;75144;-62
2023/12/15 08:19:49;;;;;;;19.10;11.60;;;;;;;1.64;100.00;100137.94;105929;1251;65747;-62
2023/12/15 08:22:16;;;;;;;18.30;12.00;;;;;;;1.66;100.00;100137.95;106599;1254;73094;-63
2023/12/15 08:24:43;;;;;;;18.50;10.60;;;;;;;1.68;100.00;100146.68;105935;1251;61245;-62
2023/12/15 08:27:12;;;;;;;19.60;11.80;;;;;;;1.67;100.00;100141.59;106020;1251;61218;-62
2023/12/15 08:29:41;;;;;;;21.30;11.70;;;;;;;1.68;100.00;100139.08;106000;1251;73515;-62
2023/12/15 08:32:08;;;;;;;16.00;10.20;;;;;;;1.72;100.00;100129.54;106287;1254;65736;-62
2023/12/15 08:34:35;;;;;;;15.40;10.30;;;;;;;1.75;100.00;100126.42;106086;1253;72758;-64
2023/12/15 08:37:03;;;;;;;18.70;11.70;;;;;;;1.76;100.00;100122.92;105658;1253;61138;-61
2023/12/15 08:39:30;;;;;;;17.60;11.00;;;;;;;1.78;100.00;100124.78;106309;1251;61157;-60
2023/12/15 08:41:57;;;;;;;20.60;13.10;;;;;;;1.83;100.00;100127.45;105843;1252;74673;-63
2023/12/15 08:44:23;;;;;;;37.10;23.40;;;;;;;1.84;100.00;100123.17;106078;1251;65786;-77
2023/12/15 08:47:00;;;;;;;51.30;31.30;;;;;;;1.85;100.00;100128.12;105930;1251;72255;-61
2023/12/15 08:49:27;;;;;;;45.40;28.60;;;;;;;1.84;100.00;100128.72;106035;1254;61138;-61
2023/12/15 08:51:55;;;;;;;46.10;34.60;;;;;;;1.86;100.00;100128.02;106253;1251;61876;-62
2023/12/15 08:54:22;;;;;;;45.60;29.20;;;;;;;1.85;100.00;100136.16;106447;1251;72611;-76
2023/12/15 08:56:49;;;;;;;41.60;24.90;;;;;;;1.83;100.00;100140.23;106157;1254;67615;-63
2023/12/15 08:59:16;;;;;;;26.70;17.90;;;;;;;1.85;100.00;100143.14;105994;1253;72829;-61
2023/12/15 09:01:44;;;;;;;22.50;14.50;;;;;;;1.80;100.00;100142.95;105973;1254;59780;-60
2023/12/15 09:04:11;;;;;;;19.30;13.40;;;;;;;1.78;100.00;100151.17;105978;1251;61211;-61
2023/12/15 09:06:38;;;;;;;20.90;13.50;;;;;;;1.75;100.00;100158.58;106095;1253;76030;-62
2023/12/15 09:09:12;;;;;;;20.80;14.60;;;;;;;1.71;100.00;100161.80;105916;1256;67305;-61
2023/12/15 09:11:39;;;;;;;21.70;14.30;;;;;;;1.73;100.00;100164.06;105886;1254;71505;-63
2023/12/15 09:14:07;;;;;;;22.10;13.20;;;;;;;1.72;100.00;100167.41;106385;1251;61218;-62
2023/12/15 09:16:34;;;;;;;18.00;11.70;;;;;;;1.71;100.00;100163.41;106156;1251;61231;-61
2023/12/15 09:19:01;;;;;;;17.50;11.80;;;;;;;1.68;100.00;100164.77;106100;1253;74665;-60
2023/12/15 09:21:29;;;;;;;16.20;11.40;;;;;;;1.65;100.00;100155.95;105932;1254;65924;-60
2023/12/15 09:23:56;;;;;;;17.40;11.20;;;;;;;1.63;100.00;100161.13;106325;1251;70647;-61
2023/12/15 09:26:25;;;;;;;15.50;10.40;;;;;;;1.62;100.00;100161.05;106217;1251;61229;-60
2023/12/15 09:28:53;;;;;;;14.80;10.80;;;;;;;1.65;100.00;100163.86;106215;1251;61110;-58
2023/12/15 09:31:21;;;;;;;14.80;10.30;;;;;;;1.69;100.00;100165.10;106180;1251;76245;-62
2023/12/15 09:33:48;;;;;;;14.10;9.90;;;;;;;1.67;100.00;100167.64;106215;1253;65945;-62
2023/12/15 09:36:15;;;;;;;17.60;12.60;;;;;;;1.63;100.00;100171.55;105925;1254;73507;-61
2023/12/15 09:38:42;;;;;;;16.80;12.40;;;;;;;1.60;100.00;100168.20;105977;1251;62520;-62
2023/12/15 09:41:10;;;;;;;18.10;13.30;;;;;;;1.59;100.00;100162.31;106028;1251;61837;-62
2023/12/15 09:43:37;;;;;;;15.80;10.30;;;;;;;1.59;100.00;100167.96;106039;1251;72345;-63
2023/12/15 09:46:04;;;;;;;12.90;8.90;;;;;;;1.60;100.00;100180.36;106207;1251;65966;-61
2023/12/15 09:48:31;;;;;;;17.70;10.70;;;;;;;1.58;100.00;100184.33;105914;1251;71948;-61
2023/12/15 09:51:02;;;;;;;13.50;9.40;;;;;;;1.56;100.00;100184.64;106480;1251;61223;-61
2023/12/15 09:53:32;;;;;;;16.90;11.00;;;;;;;1.55;100.00;100183.52;105686;1251;61319;-61
2023/12/15 09:55:59;;;;;;;17.40;10.90;;;;;;;1.54;100.00;100186.38;106033;1251;76250;-61
2023/12/15 09:58:26;;;;;;;18.20;11.80;;;;;;;1.52;100.00;100186.73;105979;1254;66190;-61
2023/12/15 10:00:53;;;;;;;17.80;11.00;;;;;;;1.50;100.00;100173.32;105968;1253;72729;-61
2023/12/15 10:03:20;;;;;;;14.10;9.80;;;;;;;1.51;100.00;100168.45;106192;1251;61250;-61
2023/12/15 10:05:47;;;;;;;13.20;9.90;;;;;;;1.52;100.00;100178.98;106172;1250;61867;-62
2023/12/15 10:08:14;;;;;;;12.20;8.50;;;;;;;1.53;100.00;100186.48;105979;1254;73426;-65
2023/12/15 10:10:42;;;;;;;13.20;8.50;;;;;;;1.53;100.00;100198.47;105919;1251;68639;-61
2023/12/15 10:13:08;;;;;;;11.20;7.00;;;;;;;1.52;100.00;100200.25;106347;1251;71304;-61
2023/12/15 10:15:35;;;;;;;11.80;8.00;;;;;;;1.51;100.00;100197.44;106055;1253;61216;-61
2023/12/15 10:18:03;;;;;;;14.10;8.30;;;;;;;1.49;100.00;100184.38;105958;1254;61151;-61
2023/12/15 10:20:30;;;;;;;12.10;7.90;;;;;;;1.49;100.00;100170.98;106100;1251;75112;-61
2023/12/15 10:23:02;;;;;;;13.40;7.70;;;;;;;1.57;100.00;100166.98;105951;1251;68454;-61
2023/12/15 10:25:29;;;;;;;11.20;7.70;;;;;;;1.59;100.00;100171.41;106167;1251;74508;-61
2023/12/15 10:27:56;;;;;;;12.70;7.70;;;;;;;1.61;100.00;100170.84;106316;1251;61238;-74
2023/12/15 10:30:25;;;;;;;11.00;7.40;;;;;;;1.62;100.00;100180.91;105866;1250;61740;-61
2023/12/15 10:32:55;;;;;;;13.80;7.80;;;;;;;1.60;100.00;100200.61;106004;1253;74697;-61
2023/12/15 10:35:25;;;;;;;12.00;8.00;;;;;;;1.61;100.00;100203.75;105830;1251;65871;-61
2023/12/15 10:37:53;;;;;;;12.80;7.80;;;;;;;1.56;100.00;100205.54;106328;1251;74075;-73
2023/12/15 10:40:20;;;;;;;11.70;8.10;;;;;;;1.54;100.00;100201.08;105950;1254;61244;-62
2023/12/15 10:42:47;;;;;;;12.60;8.20;;;;;;;1.53;100.00;100197.61;106088;1251;61760;-61
2023/12/15 10:45:15;;;;;;;11.90;8.10;;;;;;;1.54;100.00;100201.79;106078;1251;73285;-64
2023/12/15 10:47:43;;;;;;;10.10;7.20;;;;;;;1.51;100.00;100211.64;106066;1251;67664;-63
2023/12/15 10:50:10;;;;;;;10.70;7.00;;;;;;;1.47;100.00;100218.83;105969;1257;71233;-64
2023/12/15 10:52:37;;;;;;;9.50;6.00;;;;;;;1.49;100.00;100216.92;105933;1254;61195;-63
2023/12/15 10:55:06;;;;;;;9.70;6.40;;;;;;;1.50;100.00;100218.75;106037;1251;61266;-59
2023/12/15 10:57:33;;;;;;;10.40;6.70;;;;;;;1.47;100.00;100231.79;106018;1250;75097;-59
2023/12/15 11:00:03;;;;;;;10.60;6.10;;;;;;;1.46;100.00;100233.63;106454;1251;68697;-62
2023/12/15 11:02:31;;;;;;;10.90;6.90;;;;;;;1.43;100.00;100224.25;105649;1257;71386;-63
2023/12/15 11:04:59;;;;;;;10.80;6.20;;;;;;;1.41;100.00;100214.80;106084;1254;61240;-62
2023/12/15 11:20:12;;;;;;;7.00;4.40;;;;;;;1.62;100.00;100274.79;103397;1285;612676;-74